Storm Events Database

Event Details

Event Thunderstorm Wind
Magnitude 55 kts.
State MISSISSIPPI
County/Area ATTALA
WFO JAN
Begin Date 06/19/2007 12:00:00 CST-6
Begin Range 0
Begin Azimuth E
Begin Location SALLIS
Begin Lat/Lon 33.02/-89.77
End Date 06/19/2007 12:00:00 CST-6
Deaths Direct/Indirect 0/0 (fatality details below, when available...)
Injuries Direct/Indirect 0/0
Property Damage 6.00K
Crop Damage 0.00K
Episode Narrative After an active severe weather day on June 18th, the atmosphere quickly recovered and was able to support additional severe weather which began in the late evening and persisted through the overnight hours. Severe weather during the overnight hours in June is quite rare but does occur on occasion. One of the overnight storms actually produced a rare June tornado! This overnight severe weather was likely a sign and just a taste of what was to come during the day on June 19th. As the overnight/early morning complex of storms shifted east, conditions were set just right for additional storms to redevelop to the west by late morning. The atmosphere recovered once more and became quite unstable in the wake of the morning complex. A very potent disturbance dropped south out of Arkansas and developed a large bow echo complex which plowed south across the forecast area. This bow echo was very efficient at producing severe wind gusts and a large swath of wind damage occurred as the system moved southward across Mississippi into Southeast Louisiana.
Event Narrative Numerous trees were blown down.


All events for this episode:

Location County/Zone St. Date Time T.Z. Type Mag Dth Inj PrD CrD
Totals: 0 1 2.870M 150.00K
FITLER ISSAQUENA CO. MS 06/18/2007 23:57 CST-6 Hail 0.75 in. 0 0 0.00K 0.00K
VALLEY HILL CARROLL CO. MS 06/19/2007 03:53 CST-6 Thunderstorm Wind 50 kts. EG 0 0 0.00K 0.00K
VAIDEN CARROLL CO. MS 06/19/2007 04:25 CST-6 Thunderstorm Wind 50 kts. EG 0 0 0.00K 0.00K
HESTERVILLE ATTALA CO. MS 06/19/2007 04:48 CST-6 Thunderstorm Wind 50 kts. EG 0 0 0.00K 0.00K
ROSEDALE BOLIVAR CO. MS 06/19/2007 05:22 CST-6 Hail 0.75 in. 0 0 0.00K 0.00K
PRESTON KEMPER CO. MS 06/19/2007 06:50 CST-6 Lightning 0 0 250.00K 0.00K
CADARETTA WEBSTER CO. MS 06/19/2007 09:32 CST-6 Thunderstorm Wind 55 kts. EG 0 0 200.00K 0.00K
GRENADA GRENADA CO. MS 06/19/2007 10:00 CST-6 Flash Flood 0 0 500.00K 0.00K
CRANDALL CLARKE CO. MS 06/19/2007 10:22 CST-6 Thunderstorm Wind 50 kts. EG 0 0 0.00K 0.00K
HOLCOMB GRENADA CO. MS 06/19/2007 10:57 CST-6 Thunderstorm Wind 55 kts. EG 0 0 1.00K 0.00K
GRENADA GRENADA CO. MS 06/19/2007 11:00 CST-6 Thunderstorm Wind 50 kts. EG 0 0 12.00K 0.00K
CRENFREE LEFLORE CO. MS 06/19/2007 11:05 CST-6 Thunderstorm Wind 70 kts. EG 0 0 600.00K 0.00K
GREENWOOD LEFLORE CO. MS 06/19/2007 11:05 CST-6 Thunderstorm Wind 58 kts. EG 0 0 70.00K 0.00K
COILA CARROLL CO. MS 06/19/2007 11:24 CST-6 Thunderstorm Wind 53 kts. EG 0 0 0.00K 0.00K
GRAVEL HILL CARROLL CO. MS 06/19/2007 11:25 CST-6 Thunderstorm Wind 60 kts. EG 0 0 15.00K 0.00K
KILMICHAEL MONTGOMERY CO. MS 06/19/2007 11:35 CST-6 Thunderstorm Wind 55 kts. EG 0 0 5.00K 0.00K
LEXINGTON HOLMES CO. MS 06/19/2007 11:43 CST-6 Thunderstorm Wind 57 kts. EG 0 0 20.00K 0.00K
TCHULA HOLMES CO. MS 06/19/2007 11:45 CST-6 Thunderstorm Wind 55 kts. EG 0 0 2.00K 0.00K
THORNTON HOLMES CO. MS 06/19/2007 11:53 CST-6 Thunderstorm Wind 57 kts. EG 0 0 20.00K 0.00K
BELZONI HUMPHREYS CO. MS 06/19/2007 11:54 CST-6 Thunderstorm Wind 56 kts. EG 0 0 3.00K 150.00K
GOODMAN HOLMES CO. MS 06/19/2007 11:59 CST-6 Thunderstorm Wind 50 kts. EG 0 0 4.00K 0.00K
SALLIS ATTALA CO. MS 06/19/2007 12:00 CST-6 Thunderstorm Wind 55 kts. EG 0 0 6.00K 0.00K
FRENCH CAMP CHOCTAW CO. MS 06/19/2007 12:03 CST-6 Thunderstorm Wind 53 kts. EG 0 0 12.00K 0.00K
PICKENS HOLMES CO. MS 06/19/2007 12:05 CST-6 Thunderstorm Wind 55 kts. EG 0 0 2.00K 0.00K
KOSCIUSKO ATTALA CO. MS 06/19/2007 12:07 CST-6 Thunderstorm Wind 50 kts. EG 0 0 15.00K 0.00K
MC COOL ATTALA CO. MS 06/19/2007 12:12 CST-6 Thunderstorm Wind 55 kts. EG 0 0 6.00K 0.00K
THOMASTOWN LEAKE CO. MS 06/19/2007 12:20 CST-6 Thunderstorm Wind 50 kts. EG 0 0 0.00K 0.00K
SINGLETON LEAKE CO. MS 06/19/2007 12:20 CST-6 Thunderstorm Wind 53 kts. EG 0 0 0.00K 0.00K
YAZOO CITY YAZOO CO. MS 06/19/2007 12:20 CST-6 Thunderstorm Wind 50 kts. EG 0 0 12.00K 0.00K
BENTON YAZOO CO. MS 06/19/2007 12:20 CST-6 Thunderstorm Wind 53 kts. EG 0 0 0.00K 0.00K
CAMDEN MADISON CO. MS 06/19/2007 12:27 CST-6 Thunderstorm Wind 55 kts. EG 0 0 8.00K 0.00K
CARTHAGE LEAKE CO. MS 06/19/2007 12:30 CST-6 Thunderstorm Wind 58 kts. EG 0 0 33.00K 0.00K
CANTON MADISON CO. MS 06/19/2007 12:31 CST-6 Hail 0.88 in. 0 0 0.00K 0.00K
CANTON MADISON CO. MS 06/19/2007 12:32 CST-6 Thunderstorm Wind 55 kts. EG 0 0 8.00K 0.00K
NOXAPATER WINSTON CO. MS 06/19/2007 12:35 CST-6 Thunderstorm Wind 53 kts. EG 0 0 5.00K 0.00K
LUDLOW SCOTT CO. MS 06/19/2007 12:43 CST-6 Thunderstorm Wind 60 kts. EG 0 0 110.00K 0.00K
LUCKNEY RANKIN CO. MS 06/19/2007 12:52 CST-6 Thunderstorm Wind 55 kts. EG 0 0 0.00K 0.00K
BRANDON RANKIN CO. MS 06/19/2007 12:52 CST-6 Thunderstorm Wind 60 kts. EG 0 0 300.00K 0.00K
JACKSON HINDS CO. MS 06/19/2007 13:00 CST-6 Thunderstorm Wind 55 kts. EG 0 0 60.00K 0.00K
BRANDON RANKIN CO. MS 06/19/2007 13:01 CST-6 Thunderstorm Wind 55 kts. EG 0 0 11.00K 0.00K
DIXON NESHOBA CO. MS 06/19/2007 13:04 CST-6 Thunderstorm Wind 50 kts. EG 0 0 0.00K 0.00K
SPRING CREEK NESHOBA CO. MS 06/19/2007 13:06 CST-6 Thunderstorm Wind 52 kts. EG 0 0 0.00K 0.00K
UNION NEWTON CO. MS 06/19/2007 13:07 CST-6 Thunderstorm Wind 50 kts. EG 0 0 0.00K 0.00K
BYRAM HINDS CO. MS 06/19/2007 13:07 CST-6 Thunderstorm Wind 57 kts. EG 0 0 5.00K 0.00K
EAGLE BEND WARREN CO. MS 06/19/2007 13:25 CST-6 Thunderstorm Wind 50 kts. EG 0 1 80.00K 0.00K
BRAXTON SIMPSON CO. MS 06/19/2007 13:28 CST-6 Thunderstorm Wind 60 kts. EG 0 0 70.00K 0.00K
RALEIGH SMITH CO. MS 06/19/2007 13:30 CST-6 Thunderstorm Wind 50 kts. EG 0 0 0.00K 0.00K
VICKSBURG WARREN CO. MS 06/19/2007 13:35 CST-6 Thunderstorm Wind 53 kts. EG 0 0 25.00K 0.00K
NELLIEBURG LAUDERDALE CO. MS 06/19/2007 13:45 CST-6 Thunderstorm Wind 55 kts. EG 0 0 3.00K 0.00K
MEEHAN LAUDERDALE CO. MS 06/19/2007 13:47 CST-6 Thunderstorm Wind 55 kts. EG 0 0 10.00K 0.00K
GALLMAN COPIAH CO. MS 06/19/2007 13:50 CST-6 Thunderstorm Wind 50 kts. EG 0 0 0.00K 0.00K
STRINGER JASPER CO. MS 06/19/2007 13:53 CST-6 Thunderstorm Wind 50 kts. EG 0 0 40.00K 0.00K
OMA LAWRENCE CO. MS 06/19/2007 14:00 CST-6 Thunderstorm Wind 60 kts. EG 0 0 70.00K 0.00K
COLLINS COVINGTON CO. MS 06/19/2007 14:10 CST-6 Thunderstorm Wind 60 kts. EG 0 0 25.00K 0.00K
MOSELLE JONES CO. MS 06/19/2007 14:15 CST-6 Thunderstorm Wind 50 kts. EG 0 0 0.00K 0.00K
CARSON JEFFERSON DAVIS CO. MS 06/19/2007 14:18 CST-6 Thunderstorm Wind 52 kts. EG 0 0 0.00K 0.00K
LAUREL JONES CO. MS 06/19/2007 14:20 CST-6 Thunderstorm Wind 53 kts. EG 0 0 70.00K 0.00K
CARLOS LINCOLN CO. MS 06/19/2007 14:20 CST-6 Thunderstorm Wind 54 kts. EG 0 0 12.00K 0.00K
PETAL FORREST CO. MS 06/19/2007 14:25 CST-6 Thunderstorm Wind 55 kts. EG 0 0 80.00K 0.00K
HATTIESBURG FORREST CO. MS 06/19/2007 14:30 CST-6 Lightning 0 0 10.00K 0.00K
NATCHEZ ADAMS CO. MS 06/19/2007 14:32 CST-6 Thunderstorm Wind 53 kts. EG 0 0 20.00K 0.00K
BOGUE CHITTO LINCOLN CO. MS 06/19/2007 14:33 CST-6 Thunderstorm Wind 65 kts. EG 0 0 50.00K 0.00K
SUMRALL LAMAR CO. MS 06/19/2007 14:35 CST-6 Thunderstorm Wind 55 kts. EG 0 0 3.00K 0.00K
COLUMBIA MARION ARPT MARION CO. MS 06/19/2007 14:36 CST-6 Thunderstorm Wind 50 kts. EG 0 0 0.00K 0.00K
PURVIS LAMAR CO. MS 06/19/2007 14:40 CST-6 Thunderstorm Wind 53 kts. EG 0 0 7.00K 0.00K
BUDE FRANKLIN CO. MS 06/19/2007 14:52 CST-6 Thunderstorm Wind 50 kts. EG 0 0 0.00K 0.00K
SANDY HOOK MARION CO. MS 06/19/2007 15:04 CST-6 Thunderstorm Wind 50 kts. EG 0 0 0.00K 0.00K
Totals: 0 1 2.870M 150.00K